Robinson, Pennsylvania
Current Conditions -  °F | °C
As of 9:55 PM on Sunday 23 Nov 2014 (Local Time) from KIDI Reporting Station
Haze Haze  
Wind Chill: 50°   Ceiling: 3900
Heat Index: 50°   Visibility: 3mi
Dew Point: 45°   Wind: 5mph
Humidity: 82%   Direction: NA
Pressure: 29.76"   Gusts: 22mph
Location:  40.4°N, 79.13°W
Report Text: KIDI 240255Z AUTO VRB04G19KT 3SM HZ FEW032 BKN039 OVC070 10/07 A2976 RMK A01
Loading
Personal Weather Stations






























Interactive Weather Map New forecast layout! Learn more

10-Day Weather Forecast

Advertisements
Track Severe Weather on mobile